M I D A S
Marine Information and Data Acquisition System
Tripno 1200 of the Zeeleeuw from 2006-12-18 07:49:54 to 2006-12-18 13:37:40
Back to CruiseResearch ActivitiesStationsMapUnderway DataData graphs

EquipmentUnitsComment
TimeDGPSUTC
LatitudeDGPSDM.mWGS84
LongitudeDGPSDM.mWGS84
TemperatureSBE03/SBE38deg celciusITS90
ConductivitySBE21S/mITS90
SalinitySBE21 Practical Salinity Units
ChlorophylAChelsea fluorimeterg/lCalibrated in Aceton
Missing or incorrect values are displayed as -999
Sea surface data collected by the RV Zeeleeuw from 2006-12-18 07:00:44 to 2006-12-18 13:42:36
Time Latitude Longitude Temperature Conductivity Salinity ChlorophylA
2006-12-18 07:50:58 51°13.62 2°56.02 9.1529 2.951554 25.788623 -2.871232
2006-12-18 07:51:58 51°13.64 2°55.943 9.0256 2.794773 24.397575 -2.871232
2006-12-18 07:52:58 51°13.659 2°55.886 8.9775 2.805217 24.536154 -2.871232
2006-12-18 07:53:58 51°13.708 2°55.791 9.0375 2.792602 24.441846 -2.871232
2006-12-18 07:54:58 51°13.755 2°55.703 9.0645 2.914217 25.576292 -2.871232
2006-12-18 07:55:58 51°13.758 2°55.712 9.0157 2.959831 26.007738 -2.871232
2006-12-18 07:56:58 51°13.754 2°55.676 8.9996 2.905943 25.516486 -2.871232
2006-12-18 07:57:58 51°13.769 2°55.69 8.856 2.798703 24.529837 -2.871232
2006-12-18 07:58:58 51°13.771 2°55.68 8.7172 2.670193 23.355547 -2.871232
2006-12-18 07:59:57 51°13.85 2°55.623 8.8084 2.404394 20.923823 -2.871232
2006-12-18 08:00:57 51°13.964 2°55.536 8.8912 2.654791 23.230956 -2.871232
2006-12-18 08:01:58 51°14.089 2°55.443 8.9261 2.860439 25.133697 -2.871232
2006-12-18 08:02:58 51°14.197 2°55.345 8.8697 2.835516 24.91042 -2.871232
2006-12-18 08:03:57 51°14.305 2°55.178 8.8284 2.779058 24.419294 -2.871232
2006-12-18 08:04:56 51°14.44 2°54.97 9.0018 2.896222 25.530443 -2.871232
2006-12-18 08:05:55 51°14.616 2°54.78 9.0324 3.296338 29.322838 -2.871232
2006-12-18 08:06:54 51°14.799 2°54.573 8.9298 3.408667 30.456327 -2.871232
2006-12-18 08:07:54 51°14.988 2°54.362 9.0475 3.41136 30.564015 -2.871232
2006-12-18 08:08:54 51°15.178 2°54.163 9.2244 3.506109 31.286205 -2.871232
2006-12-18 08:09:54 51°15.373 2°53.965 9.2619 3.538628 31.532868 -2.871232
2006-12-18 08:10:54 51°15.569 2°53.765 9.2744 3.563693 31.763504 -2.871232
2006-12-18 08:11:54 51°15.767 2°53.57 9.2858 3.577262 31.884478 -2.871232
2006-12-18 08:12:54 51°15.963 2°53.383 9.5342 3.614758 32.138625 -2.871232
2006-12-18 08:13:54 51°16.16 2°53.198 9.5862 3.636096 32.21202 -2.871232
2006-12-18 08:14:54 51°16.361 2°53.026 9.6567 3.639929 32.194333 -2.871232
2006-12-18 08:15:54 51°16.563 2°52.858 9.7465 3.658265 32.298174 -2.871232
2006-12-18 08:16:54 51°16.762 2°52.687 9.7856 3.67484 32.399526 -2.871232
2006-12-18 08:17:54 51°16.973 2°52.575 9.6909 3.676705 32.419496 -2.871232
2006-12-18 08:18:54 51°17.194 2°52.526 9.5708 3.659715 32.337624 -2.871232
2006-12-18 08:19:54 51°17.418 2°52.491 9.3557 3.625116 32.157591 -2.871232
2006-12-18 08:20:54 51°17.642 2°52.489 9.2546 3.584409 31.921682 -2.871232
2006-12-18 08:21:54 51°17.865 2°52.517 9.1972 3.566076 31.812211 -2.871232
2006-12-18 08:22:54 51°18.084 2°52.591 9.2106 3.555408 31.740776 -2.871232
2006-12-18 08:23:54 51°18.278 2°52.769 9.2529 3.558411 31.742947 -2.871232
2006-12-18 08:24:54 51°18.446 2°53.01 9.2436 3.565661 31.781319 -2.871232
2006-12-18 08:25:54 51°18.617 2°53.247 9.2393 3.562243 31.768374 -2.871232
2006-12-18 08:26:54 51°18.79 2°53.482 9.2707 3.567008 31.805534 -2.871232
2006-12-18 08:27:54 51°18.962 2°53.72 9.3078 3.577158 31.878421 -2.871232
2006-12-18 08:28:54 51°19.135 2°53.957 9.3134 3.586895 31.947125 -2.871232
2006-12-18 08:29:54 51°19.308 2°54.192 9.3054 3.588655 31.964555 -2.871232
2006-12-18 08:30:54 51°19.481 2°54.428 9.2872 3.588759 31.974823 -2.871232
2006-12-18 08:31:54 51°19.65 2°54.671 9.2564 3.585341 31.961145 -2.871232
2006-12-18 08:32:54 51°19.816 2°54.922 9.2195 3.579437 31.931223 -2.871232
2006-12-18 08:33:54 51°19.983 2°55.172 9.2068 3.573327 31.903411 -2.871232
2006-12-18 08:34:54 51°20.148 2°55.425 9.2107 3.571773 31.895565 -2.871232
2006-12-18 08:35:54 51°20.314 2°55.676 9.1942 3.570737 31.884447 -2.871232
2006-12-18 08:36:54 51°20.477 2°55.929 9.1758 3.56183 31.811182 -2.871232
2006-12-18 08:37:54 51°20.642 2°56.184 9.2087 3.555719 31.758932 -2.871232
2006-12-18 08:38:54 51°20.807 2°56.439 9.2013 3.555511 31.730927 -2.871232
2006-12-18 08:39:54 51°20.97 2°56.694 9.1584 3.547536 31.673581 -2.871232
2006-12-18 08:40:54 51°21.102 2°56.995 9.1368 3.540908 31.632047 -2.871232
2006-12-18 08:41:54 51°21.228 2°57.305 9.1416 3.536662 31.611613 -2.871232
2006-12-18 08:42:54 51°21.355 2°57.615 9.1725 3.538422 31.6174 -2.871232
2006-12-18 08:43:54 51°21.488 2°57.918 9.1807 3.53604 31.602105 -2.871232
2006-12-18 08:44:54 51°21.588 2°58.119 9.1527 3.542772 31.629673 -2.871232
2006-12-18 08:45:54 51°21.662 2°58.199 9.1375 3.533658 31.582632 -2.871232
2006-12-18 08:46:54 51°21.677 2°58.215 9.2968 3.526408 31.494042 -2.871232
2006-12-18 08:47:54 51°21.68 2°58.229 9.3262 3.555613 31.641055 -2.871232
2006-12-18 08:48:54 51°21.686 2°58.247 9.2946 3.559446 31.663964 -2.871232
2006-12-18 08:49:54 51°21.693 2°58.267 9.1849 3.541321 31.570326 -2.871232
2006-12-18 08:50:54 51°21.698 2°58.285 9.1793 3.534693 31.541257 -2.871232
2006-12-18 08:51:54 51°21.702 2°58.304 9.1685 3.53604 31.564589 -2.871232
2006-12-18 08:52:54 51°21.728 2°58.322 9.2206 3.539768 31.584061 -2.871232
2006-12-18 08:53:54 51°21.755 2°58.269 9.2854 3.551989 31.640144 -2.871232
2006-12-18 08:54:54 51°21.73 2°58.196 9.2677 3.556546 31.668579 -2.871232
2006-12-18 08:55:54 51°21.694 2°58.148 9.2708 3.557064 31.684532 -2.871232
2006-12-18 08:56:54 51°21.682 2°58.141 9.3263 3.559757 31.69784 -2.871232
2006-12-18 08:57:54 51°21.677 2°58.146 9.4052 3.574464 31.770704 -2.871232
2006-12-18 08:58:55 51°21.672 2°58.151 9.4287 3.584407 31.82468 -2.871232
2006-12-18 08:59:54 51°21.669 2°58.155 9.4226 3.587825 31.842559 -2.871232
2006-12-18 09:00:54 51°21.668 2°58.159 9.4048 3.583889 31.822071 -2.871232
2006-12-18 09:01:54 51°21.668 2°58.164 9.3813 3.581507 31.808566 -2.871232
2006-12-18 09:02:55 51°21.669 2°58.171 9.3825 3.578814 31.796155 -2.871232
2006-12-18 09:03:54 51°21.671 2°58.179 9.3894 3.579539 31.794977 -2.871232
2006-12-18 09:04:54 51°21.672 2°58.188 9.3751 3.580264 31.797133 -2.871232
2006-12-18 09:05:54 51°21.675 2°58.199 9.3226 3.574878 31.781465 -2.871232
2006-12-18 09:06:54 51°21.676 2°58.211 9.3554 3.571046 31.760279 -2.871232
2006-12-18 09:07:54 51°21.68 2°58.224 9.3276 3.571875 31.76263 -2.871232
2006-12-18 09:08:54 51°21.684 2°58.226 9.3203 3.569803 31.747164 -2.871232
2006-12-18 09:09:54 51°21.691 2°58.175 9.3014 3.566282 31.745704 -2.871232
2006-12-18 09:10:54 51°21.691 2°58.136 9.288 3.566593 31.753784 -2.871232
2006-12-18 09:11:54 51°21.696 2°58.126 9.3078 3.569493 31.770782 -2.871232
2006-12-18 09:12:55 51°21.705 2°58.124 9.2907 3.568561 31.769911 -2.871232
2006-12-18 09:13:55 51°21.714 2°58.126 9.2833 3.567939 31.769608 -2.871232
2006-12-18 09:14:55 51°21.721 2°58.131 9.3088 3.568768 31.77363 -2.871232
2006-12-18 09:15:55 51°21.728 2°58.138 9.3324 3.573118 31.793269 -2.871232
2006-12-18 09:16:55 51°21.734 2°58.147 9.3365 3.576225 31.80812 -2.871232
2006-12-18 09:17:54 51°21.74 2°58.158 9.3323 3.575914 31.809224 -2.871232
2006-12-18 09:18:54 51°21.747 2°58.165 9.3383 3.576536 31.811191 -2.871232
2006-12-18 09:19:54 51°21.75 2°58.127 9.3401 3.576847 31.811756 -2.871232
2006-12-18 09:20:54 51°21.739 2°58.098 9.3242 3.576743 31.814908 -2.871232
2006-12-18 09:21:54 51°21.737 2°58.092 9.3122 3.576018 31.818601 -2.871232
2006-12-18 09:22:54 51°21.737 2°58.089 9.3409 3.576122 31.822132 -2.871232
2006-12-18 09:23:54 51°21.739 2°58.091 9.337 3.579436 31.835676 -2.871232
2006-12-18 09:24:55 51°21.743 2°58.094 9.3339 3.578193 31.829241 -2.871232
2006-12-18 09:25:54 51°21.747 2°58.1 9.3274 3.578297 31.829429 -2.871232
2006-12-18 09:26:54 51°21.751 2°58.108 9.3376 3.577261 31.829218 -2.871232
2006-12-18 09:27:54 51°21.757 2°58.117 9.3558 3.580058 31.838476 -2.871232
2006-12-18 09:28:54 51°21.762 2°58.129 9.3474 3.580265 31.836346 -2.871232
2006-12-18 09:29:55 51°21.769 2°58.141 9.3625 3.579333 31.836324 -2.871232
2006-12-18 09:30:54 51°21.776 2°58.155 9.3642 3.580886 31.840815 -2.871232
2006-12-18 09:31:54 51°21.783 2°58.17 9.361 3.582647 31.844846 -2.871232
2006-12-18 09:32:54 51°21.791 2°58.185 9.3554 3.582543 31.845493 -2.871232
2006-12-18 09:33:54 51°21.799 2°58.202 9.3473 3.581093 31.842027 -2.871232
2006-12-18 09:34:54 51°21.806 2°58.216 9.3423 3.580058 31.840147 -2.871232
2006-12-18 09:35:54 51°21.8 2°58.197 9.3376 3.5813 31.843238 -2.871232
2006-12-18 09:36:54 51°21.769 2°58.172 9.2676 3.574982 31.821731 -2.871232
2006-12-18 09:37:54 51°21.733 2°58.135 9.2714 3.56939 31.796491 -2.871232
2006-12-18 09:38:54 51°21.715 2°58.125 9.2743 3.56794 31.791336 -2.871232
2006-12-18 09:39:54 51°21.718 2°58.139 9.3198 3.571979 31.803722 -2.871232
2006-12-18 09:40:55 51°21.725 2°58.154 9.295 3.573636 31.812592 -2.871232
2006-12-18 09:41:54 51°21.735 2°58.17 9.3012 3.571047 31.801186 -2.871232
2006-12-18 09:42:54 51°21.745 2°58.188 9.3279 3.575086 31.81774 -2.871232
2006-12-18 09:43:54 51°21.756 2°58.207 9.3107 3.578608 31.834171 -2.871232
2006-12-18 09:44:54 51°21.766 2°58.226 9.3089 3.573429 31.814723 -2.871232
2006-12-18 09:45:54 51°21.777 2°58.239 9.3078 3.574672 31.818657 -2.871232
2006-12-18 09:46:55 51°21.771 2°58.224 9.3098 3.575293 31.826476 -2.871232
2006-12-18 09:47:54 51°21.736 2°58.211 9.2855 3.57519 31.826288 -2.871232
2006-12-18 09:48:54 51°21.698 2°58.177 9.2948 3.572393 31.808657 -2.871232
2006-12-18 09:49:56 51°21.692 2°58.167 9.3034 3.571357 31.800917 -2.871232
2006-12-18 09:50:55 51°21.703 2°58.173 9.3186 3.574257 31.811217 -2.871232
2006-12-18 09:51:56 51°21.717 2°58.185 9.3234 3.576018 31.820272 -2.871232
2006-12-18 09:52:56 51°21.73 2°58.198 9.3462 3.573636 31.794214 -2.871232
2006-12-18 09:53:56 51°21.743 2°58.215 9.327 3.581404 31.841755 -2.871232
2006-12-18 09:54:56 51°21.756 2°58.234 9.3179 3.576743 31.81992 -2.871232
2006-12-18 09:55:56 51°21.771 2°58.256 9.3217 3.575189 31.811244 -2.871232
2006-12-18 09:56:56 51°21.784 2°58.275 9.329 3.574879 31.804831 -2.871232
2006-12-18 09:57:55 51°21.78 2°58.236 9.3022 3.574879 31.816527 -2.871232
2006-12-18 09:58:56 51°21.738 2°58.189 9.3289 3.574361 31.81057 -2.871232
2006-12-18 09:59:56 51°21.712 2°58.157 9.3127 3.57954 31.839207 -2.871232
2006-12-18 10:00:57 51°21.7 2°58.142 9.3277 3.577468 31.827923 -2.871232
2006-12-18 10:01:56 51°21.702 2°58.151 9.3232 3.576536 31.825392 -2.871232
2006-12-18 10:02:57 51°21.708 2°58.16 9.299 3.575293 31.817281 -2.871232
2006-12-18 10:03:57 51°21.712 2°58.165 9.3155 3.574672 31.81615 -2.871232
2006-12-18 10:04:57 51°21.712 2°58.167 9.2998 3.577054 31.826334 -2.871232
2006-12-18 10:05:57 51°21.71 2°58.17 9.2925 3.570736 31.791426 -2.871232
2006-12-18 10:06:57 51°21.708 2°58.173 9.2595 3.569493 31.791664 -2.871232
2006-12-18 10:07:57 51°21.707 2°58.175 9.2619 3.566075 31.77288 -2.871232
2006-12-18 10:08:57 51°21.706 2°58.175 9.2467 3.564625 31.765211 -2.871232
2006-12-18 10:09:58 51°21.707 2°58.175 9.2412 3.56245 31.756211 -2.871232
2006-12-18 10:10:58 51°21.711 2°58.181 9.2434 3.562036 31.751272 -2.871232
2006-12-18 10:11:58 51°21.719 2°58.194 9.2444 3.561 31.746029 -2.871232
2006-12-18 10:12:58 51°21.729 2°58.212 9.2349 3.562347 31.754349 -2.871232
2006-12-18 10:13:58 51°21.74 2°58.232 9.2771 3.563589 31.760806 -2.871232
2006-12-18 10:14:58 51°21.753 2°58.254 9.3069 3.573636 31.811757 -2.871232
2006-12-18 10:15:58 51°21.763 2°58.273 9.3067 3.574672 31.816986 -2.871232
2006-12-18 10:16:58 51°21.77 2°58.287 9.3048 3.570839 31.795793 -2.871232
2006-12-18 10:17:58 51°21.771 2°58.29 9.2762 3.570011 31.787596 -2.871232
2006-12-18 10:18:58 51°21.75 2°58.262 9.2867 3.567422 31.77785 -2.871232
2006-12-18 10:19:58 51°21.722 2°58.211 9.2465 3.567939 31.783811 -2.871232
2006-12-18 10:20:59 51°21.692 2°58.158 9.255 3.562968 31.757996 -2.871232
2006-12-18 10:21:59 51°21.68 2°58.152 9.2605 3.562554 31.755565 -2.871232
2006-12-18 10:22:59 51°21.682 2°58.154 9.2881 3.566386 31.774284 -2.871232
2006-12-18 10:23:59 51°21.684 2°58.156 9.3691 3.57664 31.824745 -2.871232
2006-12-18 10:24:59 51°21.685 2°58.16 9.3842 3.58679 31.876576 -2.871232
2006-12-18 10:25:59 51°21.683 2°58.164 9.3027 3.58534 31.868104 -2.871232
2006-12-18 10:26:59 51°21.682 2°58.168 9.2641 3.568975 31.785704 -2.871232
2006-12-18 10:27:59 51°21.684 2°58.167 9.2953 3.567732 31.780925 -2.871232
2006-12-18 10:28:59 51°21.69 2°58.165 9.276 3.570529 31.796062 -2.871232
2006-12-18 10:29:59 51°21.696 2°58.165 9.3059 3.570943 31.795982 -2.871232
2006-12-18 10:30:59 51°21.698 2°58.168 9.3225 3.574672 31.814478 -2.871232
2006-12-18 10:31:59 51°21.698 2°58.173 9.3423 3.581922 31.856065 -2.871232
2006-12-18 10:32:59 51°21.698 2°58.176 9.3081 3.578608 31.839186 -2.871232
2006-12-18 10:33:59 51°21.699 2°58.179 9.2947 3.574465 31.817445 -2.871232
2006-12-18 10:34:59 51°21.7 2°58.183 9.3211 3.577986 31.837222 -2.871232
2006-12-18 10:35:59 51°21.7 2°58.188 9.3352 3.575708 31.825557 -2.871232
2006-12-18 10:36:59 51°21.701 2°58.192 9.3117 3.583786 31.870309 -2.871232
2006-12-18 10:37:59 51°21.701 2°58.198 9.2819 3.573015 31.811461 -2.871232
2006-12-18 10:38:59 51°21.696 2°58.179 9.2771 3.570736 31.798948 -2.871232
2006-12-18 10:39:59 51°21.631 2°58.033 9.2595 3.568872 31.79053 -2.871232
2006-12-18 10:40:59 51°21.546 2°57.836 9.2491 3.568768 31.790341 -2.871232
2006-12-18 10:41:59 51°21.484 2°57.673 9.2226 3.565247 31.780562 -2.871232
2006-12-18 10:42:59 51°21.447 2°57.591 9.2168 3.56245 31.7721 -2.871232
2006-12-18 10:43:59 51°21.427 2°57.547 9.2234 3.562554 31.7748 -2.871232
2006-12-18 10:44:59 51°21.421 2°57.515 9.2257 3.564315 31.785551 -2.871232
2006-12-18 10:45:59 51°21.421 2°57.493 9.2238 3.564004 31.784983 -2.871232
2006-12-18 10:46:59 51°21.418 2°57.482 9.2212 3.56359 31.783389 -2.871232
2006-12-18 10:47:59 51°21.417 2°57.476 9.2182 3.563486 31.784037 -2.871232
2006-12-18 10:48:59 51°21.417 2°57.474 9.2226 3.563486 31.784874 -2.871232
2006-12-18 10:49:59 51°21.417 2°57.474 9.2325 3.564936 31.793383 -2.871232
2006-12-18 10:50:59 51°21.419 2°57.474 9.2347 3.566593 31.803104 -2.871232
2006-12-18 10:51:59 51°21.421 2°57.475 9.2263 3.567422 31.809638 -2.871232
2006-12-18 10:52:59 51°21.423 2°57.477 9.2303 3.565661 31.801404 -2.871232
2006-12-18 10:53:58 51°21.425 2°57.479 9.2272 3.567836 31.815418 -2.871232
2006-12-18 10:54:57 51°21.429 2°57.48 9.2191 3.567008 31.813909 -2.871232
2006-12-18 10:55:56 51°21.433 2°57.48 9.2111 3.566076 31.812211 -2.871232
2006-12-18 10:56:55 51°21.439 2°57.479 9.1232 3.560897 31.795225 -2.871232
2006-12-18 10:57:55 51°21.443 2°57.48 9.1082 3.55168 31.759072 -2.871232
2006-12-18 10:58:55 51°21.447 2°57.483 9.0952 3.55054 31.752788 -2.871232
2006-12-18 10:59:55 51°21.45 2°57.489 9.0909 3.546501 31.733623 -2.871232
2006-12-18 11:00:55 51°21.451 2°57.496 9.0814 3.547019 31.736253 -2.871232
2006-12-18 11:01:55 51°21.454 2°57.502 9.0798 3.54443 31.723938 -2.871232
2006-12-18 11:02:55 51°21.457 2°57.506 9.1187 3.549298 31.74799 -2.871232
2006-12-18 11:03:55 51°21.463 2°57.509 9.1725 3.556237 31.782517 -2.871232
2006-12-18 11:04:55 51°21.47 2°57.506 9.1517 3.564005 31.821016 -2.871232
2006-12-18 11:05:55 51°21.47 2°57.491 9.1391 3.558619 31.791903 -2.871232
2006-12-18 11:06:55 51°21.461 2°57.472 9.1131 3.549712 31.746234 -2.871232
2006-12-18 11:07:55 51°21.455 2°57.458 9.1232 3.554372 31.771556 -2.871232
2006-12-18 11:08:55 51°21.449 2°57.452 9.1755 3.555615 31.778863 -2.871232
2006-12-18 11:09:55 51°21.45 2°57.446 9.1829 3.563901 31.821666 -2.871232
2006-12-18 11:10:55 51°21.452 2°57.443 9.19 3.565662 31.83242 -2.871232
2006-12-18 11:11:55 51°21.458 2°57.44 9.1744 3.564419 31.823448 -2.871232
2006-12-18 11:12:55 51°21.465 2°57.437 9.1707 3.562865 31.818103 -2.871232
2006-12-18 11:13:55 51°21.472 2°57.437 9.1666 3.560794 31.804261 -2.871232
2006-12-18 11:14:55 51°21.48 2°57.439 9.2052 3.561933 31.811371 -2.871232
2006-12-18 11:15:55 51°21.491 2°57.448 9.1894 3.566076 31.832334 -2.871232
2006-12-18 11:16:55 51°21.503 2°57.461 9.1946 3.56618 31.833361 -2.871232
2006-12-18 11:17:55 51°21.517 2°57.477 9.2418 3.570115 31.854768 -2.871232
2006-12-18 11:18:55 51°21.532 2°57.495 9.2695 3.586169 31.941628 -2.871232
2006-12-18 11:19:55 51°21.547 2°57.51 9.2614 3.588759 31.955503 -2.871232
2006-12-18 11:20:55 51°21.553 2°57.478 9.2619 3.585652 31.933145 -2.871232
2006-12-18 11:21:55 51°21.525 2°57.405 9.2787 3.57923 31.904809 -2.871232
2006-12-18 11:22:55 51°21.52 2°57.379 9.3296 3.588448 31.954947 -2.871232
2006-12-18 11:23:55 51°21.532 2°57.365 9.3253 3.594663 31.989564 -2.871232
2006-12-18 11:24:55 51°21.541 2°57.36 9.3546 3.591141 31.968161 -2.871232
2006-12-18 11:25:55 51°21.547 2°57.366 9.3864 3.600981 32.020125 -2.871232
2006-12-18 11:26:55 51°21.55 2°57.379 9.3618 3.603985 32.036374 -2.871232
2006-12-18 11:27:55 51°21.552 2°57.394 9.3744 3.601085 32.020309 -2.871232
2006-12-18 11:28:55 51°21.554 2°57.412 9.3997 3.601396 32.02506 -2.871232
2006-12-18 11:29:55 51°21.555 2°57.432 9.4211 3.612582 32.085172 -2.871232
2006-12-18 11:30:55 51°21.544 2°57.444 9.4247 3.612064 32.081738 -2.871232
2006-12-18 11:31:55 51°21.5 2°57.406 9.4481 3.615172 32.097294 -2.871232
2006-12-18 11:32:55 51°21.465 2°57.362 9.4697 3.618901 32.117291 -2.871232
2006-12-18 11:33:55 51°21.464 2°57.352 9.4759 3.62408 32.144854 -2.871232
2006-12-18 11:34:55 51°21.464 2°57.344 9.4857 3.624287 32.146897 -2.871232
2006-12-18 11:35:55 51°21.461 2°57.343 9.4869 3.62553 32.152433 -2.871232
2006-12-18 11:36:55 51°21.456 2°57.349 9.4921 3.626359 32.156402 -2.871232
2006-12-18 11:37:55 51°21.453 2°57.36 9.4935 3.627291 32.161391 -2.871232
2006-12-18 11:38:55 51°21.448 2°57.376 9.4963 3.627395 32.162413 -2.871232
2006-12-18 11:39:55 51°21.444 2°57.391 9.4965 3.62812 32.16788 -2.871232
2006-12-18 11:40:55 51°21.443 2°57.404 9.4966 3.627809 32.166497 -2.871232
2006-12-18 11:41:55 51°21.445 2°57.411 9.498 3.62812 32.16788 -2.871232
2006-12-18 11:42:55 51°21.451 2°57.415 9.4951 3.628224 32.16722 -2.871232
2006-12-18 11:43:55 51°21.459 2°57.416 9.4983 3.628224 32.168061 -2.871232
2006-12-18 11:44:55 51°21.467 2°57.416 9.5061 3.628742 32.167284 -2.871232
2006-12-18 11:45:55 51°21.474 2°57.417 9.5099 3.62926 32.169028 -2.871232
2006-12-18 11:46:55 51°21.478 2°57.425 9.5007 3.629467 32.17191 -2.871232
2006-12-18 11:47:55 51°21.48 2°57.439 9.4999 3.628534 32.169443 -2.871232
2006-12-18 11:48:55 51°21.48 2°57.456 9.497 3.628224 32.16722 -2.871232
2006-12-18 11:49:55 51°21.48 2°57.474 9.4944 3.628017 32.166859 -2.871232
2006-12-18 11:50:55 51°21.48 2°57.491 9.4868 3.627809 32.165657 -2.871232
2006-12-18 11:51:55 51°21.48 2°57.505 9.4877 3.626463 32.158263 -2.871232
2006-12-18 11:52:55 51°21.482 2°57.515 9.4905 3.627084 32.16103 -2.871232
2006-12-18 11:53:55 51°21.484 2°57.523 9.4904 3.626774 32.159646 -2.871232
2006-12-18 11:54:55 51°21.471 2°57.518 9.4919 3.62667 32.158625 -2.871232
2006-12-18 11:55:55 51°21.427 2°57.473 9.4802 3.626048 32.152498 -2.871232
2006-12-18 11:56:55 51°21.41 2°57.452 9.476 3.624391 32.145398 -2.871232
2006-12-18 11:57:55 51°21.414 2°57.445 9.4723 3.623666 32.142449 -2.871232
2006-12-18 11:58:55 51°21.417 2°57.442 9.4784 3.623252 32.138363 -2.871232
2006-12-18 11:59:55 51°21.418 2°57.444 9.4824 3.623769 32.13843 -2.871232
2006-12-18 12:00:55 51°21.416 2°57.446 9.4735 3.623355 32.136864 -2.871232
2006-12-18 12:01:55 51°21.415 2°57.444 9.4726 3.622837 32.137637 -2.871232
2006-12-18 12:02:55 51°21.417 2°57.438 9.4725 3.623044 32.138 -2.871232
2006-12-18 12:03:55 51°21.419 2°57.431 9.4722 3.622837 32.136797 -2.871232
2006-12-18 12:04:55 51°21.422 2°57.427 9.4759 3.623044 32.13632 -2.871232
2006-12-18 12:05:55 51°21.426 2°57.427 9.4788 3.622837 32.135957 -2.871232
2006-12-18 12:06:55 51°21.43 2°57.43 9.4746 3.623977 32.137953 -2.871232
2006-12-18 12:07:55 51°21.434 2°57.435 9.4706 3.623459 32.141246 -2.871232
2006-12-18 12:08:55 51°21.439 2°57.441 9.4721 3.623044 32.13968 -2.871232
2006-12-18 12:09:55 51°21.445 2°57.446 9.4763 3.623873 32.141971 -2.871232
2006-12-18 12:10:55 51°21.452 2°57.45 9.4735 3.623459 32.140406 -2.871232
2006-12-18 12:11:55 51°21.459 2°57.456 9.4727 3.623252 32.140883 -2.871232
2006-12-18 12:12:55 51°21.467 2°57.461 9.4774 3.62377 32.14431 -2.871232
2006-12-18 12:13:55 51°21.476 2°57.465 9.473 3.623873 32.144492 -2.871232
2006-12-18 12:14:55 51°21.486 2°57.469 9.4721 3.62377 32.145151 -2.871232
2006-12-18 12:15:55 51°21.497 2°57.474 9.475 3.62377 32.14431 -2.871232
2006-12-18 12:16:55 51°21.506 2°57.473 9.4834 3.623977 32.146354 -2.871232
2006-12-18 12:17:55 51°21.51 2°57.419 9.4758 3.624805 32.149484 -2.871232
2006-12-18 12:18:55 51°21.547 2°57.37 9.4829 3.625323 32.155432 -2.871232
2006-12-18 12:19:55 51°21.566 2°57.376 9.4836 3.626359 32.161444 -2.871232
2006-12-18 12:20:55 51°21.579 2°57.37 9.4846 3.626774 32.16637 -2.871232
2006-12-18 12:21:55 51°21.585 2°57.368 9.4841 3.627188 32.168774 -2.871232
2006-12-18 12:22:55 51°21.586 2°57.372 9.4842 3.627499 32.170157 -2.871232
2006-12-18 12:23:55 51°21.583 2°57.382 9.4925 3.627913 32.168359 -2.871232
2006-12-18 12:24:55 51°21.577 2°57.396 9.4871 3.627913 32.17004 -2.871232
2006-12-18 12:25:55 51°21.533 2°57.394 9.4827 3.627395 32.169136 -2.871232
2006-12-18 12:26:55 51°21.512 2°57.343 9.4807 3.626359 32.163125 -2.871232
2006-12-18 12:27:55 51°21.511 2°57.346 9.4838 3.626152 32.163604 -2.871232
2006-12-18 12:28:55 51°21.508 2°57.348 9.4739 3.626048 32.161741 -2.871232
2006-12-18 12:29:55 51°21.509 2°57.344 9.4714 3.625427 32.160656 -2.871232
2006-12-18 12:30:55 51°21.51 2°57.34 9.4771 3.625634 32.158496 -2.871232
2006-12-18 12:31:55 51°21.508 2°57.346 9.4778 3.625427 32.160656 -2.871232
2006-12-18 12:32:55 51°21.503 2°57.354 9.4693 3.625427 32.159815 -2.871232
2006-12-18 12:33:55 51°21.497 2°57.36 9.4665 3.624806 32.15957 -2.871232
2006-12-18 12:34:55 51°21.492 2°57.363 9.4631 3.624391 32.156324 -2.871232
2006-12-18 12:35:55 51°21.488 2°57.361 9.4577 3.62377 32.155237 -2.871232
2006-12-18 12:36:55 51°21.488 2°57.357 9.4568 3.623252 32.153491 -2.871232
2006-12-18 12:37:55 51°21.496 2°57.361 9.4578 3.623148 32.152469 -2.871232
2006-12-18 12:38:55 51°21.51 2°57.374 9.4579 3.623355 32.153672 -2.871232
2006-12-18 12:39:55 51°21.51 2°57.358 9.4594 3.623355 32.153672 -2.871232
2006-12-18 12:40:55 51°21.429 2°57.223 9.4507 3.623355 32.155354 -2.871232
2006-12-18 12:41:55 51°21.293 2°56.989 9.4371 3.621284 32.145844 -2.871232
2006-12-18 12:42:55 51°21.144 2°56.748 9.4328 3.61973 32.139759 -2.871232
2006-12-18 12:43:55 51°20.994 2°56.51 9.4403 3.620662 32.147279 -2.871232
2006-12-18 12:44:55 51°20.843 2°56.273 9.4386 3.620351 32.140007 -2.871232
2006-12-18 12:45:56 51°20.691 2°56.027 9.4362 3.617762 32.11613 -2.871232
2006-12-18 12:46:55 51°20.541 2°55.791 9.4357 3.614758 32.090685 -2.871232
2006-12-18 12:47:55 51°20.391 2°55.549 9.4446 3.608749 32.02805 -2.871232
2006-12-18 12:48:55 51°20.241 2°55.306 9.4634 3.615483 32.084408 -2.871232
2006-12-18 12:49:55 51°20.09 2°55.065 9.4726 3.618901 32.101338 -2.871232
2006-12-18 12:50:55 51°19.939 2°54.824 9.482 3.621283 32.118116 -2.871232
2006-12-18 12:51:55 51°19.787 2°54.582 9.4927 3.624287 32.138497 -2.871232
2006-12-18 12:52:55 51°19.63 2°54.348 9.5205 3.628949 32.170166 -2.871232
2006-12-18 12:53:55 51°19.47 2°54.117 9.5869 3.638997 32.232181 -2.871232
2006-12-18 12:54:55 51°19.308 2°53.886 9.7891 3.660441 32.354006 -2.871232
2006-12-18 12:55:55 51°19.149 2°53.655 10.0637 3.712655 32.619249 -2.871232
2006-12-18 12:56:55 51°18.989 2°53.425 10.1247 3.738142 32.701457 -2.871232
2006-12-18 12:57:55 51°18.83 2°53.195 10.1505 3.744255 32.71563 -2.871232
2006-12-18 12:58:55 51°18.663 2°52.978 10.1636 3.748296 32.738148 -2.871232
2006-12-18 12:59:55 51°18.488 2°52.779 10.1794 3.749954 32.738328 -2.871232
2006-12-18 13:00:55 51°18.297 2°52.63 10.1852 3.750575 32.734309 -2.871232
2006-12-18 13:01:55 51°18.085 2°52.559 10.1878 3.750265 32.724586 -2.871232
2006-12-18 13:02:55 51°17.87 2°52.533 10.1934 3.749539 32.715865 -2.871232
2006-12-18 13:03:55 51°17.654 2°52.503 10.193 3.748814 32.702961 -2.871232
2006-12-18 13:04:55 51°17.439 2°52.469 10.1552 3.745602 32.684319 -2.871232
2006-12-18 13:05:55 51°17.222 2°52.434 10.0982 3.74011 32.661088 -2.871232
2006-12-18 13:06:56 51°17.002 2°52.46 9.9812 3.723222 32.578809 -2.871232
2006-12-18 13:07:55 51°16.796 2°52.562 9.8932 3.705919 32.496383 -2.871232
2006-12-18 13:08:56 51°16.582 2°52.668 9.6715 3.66624 32.247479 -2.871232
2006-12-18 13:09:55 51°16.375 2°52.762 9.5352 3.619313 31.977532 -2.871232
2006-12-18 13:10:55 51°16.162 2°52.857 9.5028 3.601601 31.874994 -2.871232
2006-12-18 13:11:55 51°15.946 2°52.947 9.4768 3.590207 31.798626 -2.871232
2006-12-18 13:12:55 51°15.731 2°53.038 9.4912 3.584303 31.750476 -2.871232
2006-12-18 13:13:55 51°15.516 2°53.127 9.4734 3.584199 31.729558 -2.871232
2006-12-18 13:14:55 51°15.318 2°53.274 9.4431 3.560998 31.548405 -2.871232
2006-12-18 13:15:56 51°15.134 2°53.482 9.4667 3.554369 31.486471 -2.871232
2006-12-18 13:16:55 51°14.974 2°53.727 9.5612 3.56949 31.588225 -2.871232
2006-12-18 13:17:55 51°14.83 2°53.969 9.6476 3.597974 31.777156 -2.871232
2006-12-18 13:18:55 51°14.738 2°54.201 9.529 3.605018 31.806547 -2.871232
2006-12-18 13:19:55 51°14.65 2°54.381 9.4716 3.56804 31.576443 -2.871232
2006-12-18 13:20:55 51°14.571 2°54.536 9.4459 3.549811 31.422733 -2.871232
2006-12-18 13:21:55 51°14.511 2°54.669 9.3451 3.546601 31.443767 -2.871232
2006-12-18 13:22:55 51°14.46 2°54.775 9.214 3.44915 30.609596 -2.871232
2006-12-18 13:23:55 51°14.4 2°54.905 9.2608 3.420572 30.353938 -2.871232
2006-12-18 13:24:56 51°14.354 2°55.07 9.1679 3.325839 29.456932 -2.871232
2006-12-18 13:25:55 51°14.307 2°55.192 9.4298 1.560493 11.176292 -2.871232
2006-12-18 13:26:59 51°14.246 2°55.305 9.6174 0.261154 1.592299 -2.871232
2006-12-18 13:27:59 51°14.183 2°55.389 9.7704 0.175726 1.050078 -2.871232
2006-12-18 13:28:59 51°14.106 2°55.454 10.0087 0.144336 0.858655 -2.871232
2006-12-18 13:29:59 51°14.014 2°55.517 10.1673 0.129619 0.768496 -2.871232
2006-12-18 13:30:58 51°13.926 2°55.578 10.3537 0.120974 0.718401 -2.871232
2006-12-18 13:31:57 51°13.842 2°55.633 10.5815 0.116034 0.688248 -2.871232
2006-12-18 13:32:56 51°13.762 2°55.691 10.757 0.112534 0.667199 -2.871232
2006-12-18 13:33:56 51°13.691 2°55.771 10.8856 0.109859 0.65043 -2.871232
2006-12-18 13:34:55 51°13.66 2°55.887 11.0562 0.107491 0.636804 -2.871232
2006-12-18 13:35:56 51°13.619 2°55.995 11.2693 0.105742 0.625865 -2.871232
2006-12-18 13:36:55 51°13.604 2°56.076 11.44 0.104404 0.617757 -2.871232